Meteo Giornale » Osservazioni meteo Stati Uniti (USA) » Jamestown
ore: 11:56 - Osservazioni Meteo Jamestown
Lat. 46° 55' N Lon. 98° 40' W Alt. 457 metri s.l.m.
24 °C
Sereno
Temp. 24 Ore
12 °C
26 °C
Ovest/Sud-Ovest
20.3 Km/h
Dew point 12 °C
Umidità 47 %
Visibilità 10 Km
Il sole sorge alle ore 06:53
Il sole tramonta alle ore 20:16
| Data e Ora | Cielo e Fenomeni | T °C | DP °C | Um. % | Pres. hPa | Vis. km | Vento km/h | |
|---|---|---|---|---|---|---|---|---|
| Oggi h: 11:56 | Sereno | 24 | 12 | 47 | 1012 | 10 | O/SO 20.3 | |
| Oggi h: 10:56 | Sereno | 22 | 13 | 56 | 1012 | 10 | O/SO 20.3 | |
| Oggi h: 09:56 | Sereno | 19 | 13 | 68 | 1012 | 10 | O 16.7 | |
| Oggi h: 08:56 | Sereno | 17 | 13 | 77 | 1012 | 10 | O 20.3 | |
| Oggi h: 07:56 | Sereno | 14 | 12 | 87 | 1011 | 10 | O 13 | |
| Oggi h: 06:56 | Sereno | 12 | 11 | 93 | 1010 | 10 | O 11.1 | |
| Oggi h: 05:56 | Sereno | 13 | 12 | 93 | 1010 | 10 | SO 7.4 | |
| Oggi h: 04:56 | Sereno | 14 | 13 | 93 | 1010 | 10 | O 14.8 | |
| Oggi h: 03:56 | Sereno | 14 | 13 | 93 | 1009 | 10 | O/NO 11.1 | |
| Oggi h: 02:56 | Sereno | 16 | 14 | 87 | 1009 | 10 | O 16.7 | |
| Oggi h: 01:56 | Sereno | 17 | 16 | 93 | 1008 | 10 | O 16.7 | |
| Oggi h: 00:56 | Poco Nuvoloso | 18 | 17 | 93 | 1008 | 10 | O 14.8 | |
| Ieri h: 23:56 | Nuvoloso | 18 | 17 | 93 | 1007 | 10 | O/NO 9.3 | |
| Ieri h: 22:56 | Sereno | 18 | 18 | 100 | 1007 | 10 | NO 16.7 | |
| Ieri h: 22:30 | Temporale nelle vicinanze Pioggia | 19 | 18 | 93 | 1007 | 10 | N/NO 14.8 | |
| Ieri h: 22:21 | Temporale Foschia | 19 | 18 | 93 | 1007 | 5 | NO 27.8 | |
| Ieri h: 22:19 | Temporale Foschia | 19 | 18 | 93 | 1007 | 5 | NO 27.8 | |
| Ieri h: 22:11 | Temporale Foschia | 22 | 21 | 94 | 1007 | 3 | O 22.2 | |
| Ieri h: 21:56 | Temporale nelle vicinanze | 22 | 21 | 94 | 1007 | 13 | SO 7.4 | |
| Ieri h: 21:05 | Coperto | 22 | 21 | 94 | 1006 | 14 | O/NO 7.4 | |
| Ieri h: 20:56 | Coperto | 22 | 21 | 94 | 1007 | 14 | O/NO 7.4 | |
| Ieri h: 19:56 | Coperto | 22 | 21 | 94 | 1006 | 14 | N 0 | |
| Ieri h: 18:56 | Coperto | 22 | 21 | 94 | 1006 | 13 | NE 7.4 | |
| Ieri h: 17:56 | Foschia | 22 | 21 | 94 | 1006 | 10 | E/SE 7.4 | |
| Ieri h: 16:56 | Coperto | 23 | 21 | 88 | 1006 | 10 | E 9.3 | |
| Ieri h: 15:56 | Coperto | 23 | 21 | 88 | 1007 | 10 | E 13 | |
| Ieri h: 15:17 | Pioggia | 23 | 21 | 88 | 1007 | 10 | E/NE 14.8 | |
| Ieri h: 14:56 | Pioggia | 23 | 20 | 83 | 1007 | 11 | E/SE 16.7 | |
| Ieri h: 14:41 | Coperto | 24 | 20 | 78 | 1007 | 10 | E 20.3 | |
| Ieri h: 13:56 | Coperto | 24 | 20 | 78 | 1008 | 10 | E 14.8 | |
| Ieri h: 13:42 | Molto Nuvoloso | 25 | 20 | 73 | 1008 | 10 | E 16.7 | |
| Ieri h: 12:56 | Molto Nuvoloso | 26 | 21 | 73 | 1008 | 10 | E 14.8 | |



